sensor_id;sensor_type;location;lat;lon;timestamp;P1;durP1;ratioP1;P2;durP2;ratioP2
54909;SDS011;63189;51.240;9.964;2023-04-03T00:00:25;5.05;;;1.02;;
54909;SDS011;63189;51.240;9.964;2023-04-03T00:02:50;5.35;;;1.23;;
54909;SDS011;63189;51.240;9.964;2023-04-03T00:05:15;5.43;;;1.55;;
54909;SDS011;63189;51.240;9.964;2023-04-03T00:07:41;4.05;;;1.17;;
54909;SDS011;63189;51.240;9.964;2023-04-03T00:10:06;4.85;;;1.23;;
54909;SDS011;63189;51.240;9.964;2023-04-03T00:12:32;2.75;;;1.10;;
54909;SDS011;63189;51.240;9.964;2023-04-03T00:14:58;4.20;;;1.20;;
54909;SDS011;63189;51.240;9.964;2023-04-03T00:17:23;4.80;;;1.70;;
54909;SDS011;63189;51.240;9.964;2023-04-03T00:19:48;4.43;;;1.25;;
54909;SDS011;63189;51.240;9.964;2023-04-03T00:22:14;3.72;;;1.40;;
54909;SDS011;63189;51.240;9.964;2023-04-03T00:24:39;5.07;;;1.42;;
54909;SDS011;63189;51.240;9.964;2023-04-03T00:27:04;4.63;;;1.10;;
54909;SDS011;63189;51.240;9.964;2023-04-03T00:29:30;3.85;;;1.30;;
54909;SDS011;63189;51.240;9.964;2023-04-03T00:31:55;5.82;;;1.50;;
54909;SDS011;63189;51.240;9.964;2023-04-03T00:34:20;6.50;;;1.30;;
54909;SDS011;63189;51.240;9.964;2023-04-03T00:36:46;4.20;;;1.35;;
54909;SDS011;63189;51.240;9.964;2023-04-03T00:39:11;5.53;;;1.38;;
54909;SDS011;63189;51.240;9.964;2023-04-03T00:41:36;2.92;;;1.13;;
54909;SDS011;63189;51.240;9.964;2023-04-03T00:44:18;3.92;;;1.15;;
54909;SDS011;63189;51.240;9.964;2023-04-03T00:47:04;3.45;;;1.20;;
54909;SDS011;63189;51.240;9.964;2023-04-03T00:49:32;3.83;;;1.27;;
54909;SDS011;63189;51.240;9.964;2023-04-03T00:51:57;4.72;;;1.30;;
54909;SDS011;63189;51.240;9.964;2023-04-03T00:54:23;4.95;;;1.50;;
54909;SDS011;63189;51.240;9.964;2023-04-03T00:56:50;4.43;;;1.70;;
54909;SDS011;63189;51.240;9.964;2023-04-03T00:59:19;2.50;;;1.05;;
54909;SDS011;63189;51.240;9.964;2023-04-03T01:01:50;4.67;;;1.50;;
54909;SDS011;63189;51.240;9.964;2023-04-03T01:07:07;6.05;;;1.50;;
54909;SDS011;63189;51.240;9.964;2023-04-03T01:09:56;4.50;;;1.45;;
54909;SDS011;63189;51.240;9.964;2023-04-03T01:12:24;5.93;;;1.30;;
54909;SDS011;63189;51.240;9.964;2023-04-03T01:14:53;3.70;;;0.98;;
54909;SDS011;63189;51.240;9.964;2023-04-03T01:17:31;4.65;;;1.20;;
54909;SDS011;63189;51.240;9.964;2023-04-03T01:25:38;4.43;;;1.00;;
54909;SDS011;63189;51.240;9.964;2023-04-03T01:28:10;4.05;;;0.90;;
54909;SDS011;63189;51.240;9.964;2023-04-03T01:30:43;2.30;;;0.93;;
54909;SDS011;63189;51.240;9.964;2023-04-03T01:33:15;4.32;;;0.95;;
54909;SDS011;63189;51.240;9.964;2023-04-03T01:35:40;4.07;;;1.30;;
54909;SDS011;63189;51.240;9.964;2023-04-03T01:38:06;3.03;;;1.33;;
54909;SDS011;63189;51.240;9.964;2023-04-03T01:40:32;7.53;;;1.45;;
54909;SDS011;63189;51.240;9.964;2023-04-03T01:42:57;3.53;;;1.13;;
54909;SDS011;63189;51.240;9.964;2023-04-03T01:45:22;4.10;;;0.98;;
54909;SDS011;63189;51.240;9.964;2023-04-03T01:47:48;5.13;;;1.45;;
54909;SDS011;63189;51.240;9.964;2023-04-03T01:50:13;5.05;;;1.50;;
54909;SDS011;63189;51.240;9.964;2023-04-03T01:52:41;3.05;;;1.08;;
54909;SDS011;63189;51.240;9.964;2023-04-03T01:55:06;4.80;;;1.25;;
54909;SDS011;63189;51.240;9.964;2023-04-03T01:57:32;6.32;;;1.55;;
54909;SDS011;63189;51.240;9.964;2023-04-03T01:59:57;5.45;;;1.17;;
54909;SDS011;63189;51.240;9.964;2023-04-03T02:02:22;3.78;;;1.30;;
54909;SDS011;63189;51.240;9.964;2023-04-03T02:04:47;3.70;;;0.93;;
54909;SDS011;63189;51.240;9.964;2023-04-03T02:07:13;6.07;;;1.52;;
54909;SDS011;63189;51.240;9.964;2023-04-03T02:09:38;4.07;;;1.45;;
54909;SDS011;63189;51.240;9.964;2023-04-03T02:12:03;5.13;;;1.35;;
54909;SDS011;63189;51.240;9.964;2023-04-03T02:14:29;6.25;;;1.50;;
54909;SDS011;63189;51.240;9.964;2023-04-03T02:16:54;4.75;;;1.73;;
54909;SDS011;63189;51.240;9.964;2023-04-03T02:19:20;5.07;;;1.35;;
54909;SDS011;63189;51.240;9.964;2023-04-03T02:21:45;3.80;;;1.60;;
54909;SDS011;63189;51.240;9.964;2023-04-03T02:24:10;3.67;;;1.20;;
54909;SDS011;63189;51.240;9.964;2023-04-03T02:26:36;4.88;;;1.67;;
54909;SDS011;63189;51.240;9.964;2023-04-03T02:29:01;4.68;;;1.38;;
54909;SDS011;63189;51.240;9.964;2023-04-03T02:31:26;3.08;;;1.25;;
54909;SDS011;63189;51.240;9.964;2023-04-03T02:33:52;5.15;;;2.00;;
54909;SDS011;63189;51.240;9.964;2023-04-03T02:36:17;4.63;;;1.60;;
54909;SDS011;63189;51.240;9.964;2023-04-03T02:38:42;4.45;;;1.23;;
54909;SDS011;63189;51.240;9.964;2023-04-03T02:41:09;3.63;;;1.70;;
54909;SDS011;63189;51.240;9.964;2023-04-03T02:43:36;5.53;;;1.55;;
54909;SDS011;63189;51.240;9.964;2023-04-03T02:46:02;3.95;;;1.67;;
54909;SDS011;63189;51.240;9.964;2023-04-03T02:48:27;3.38;;;1.10;;
54909;SDS011;63189;51.240;9.964;2023-04-03T02:50:53;4.75;;;1.40;;
54909;SDS011;63189;51.240;9.964;2023-04-03T02:53:19;5.57;;;1.80;;
54909;SDS011;63189;51.240;9.964;2023-04-03T02:55:44;3.38;;;1.33;;
54909;SDS011;63189;51.240;9.964;2023-04-03T02:58:10;4.28;;;1.40;;
54909;SDS011;63189;51.240;9.964;2023-04-03T03:00:36;2.97;;;1.35;;
54909;SDS011;63189;51.240;9.964;2023-04-03T03:03:02;4.25;;;1.67;;
54909;SDS011;63189;51.240;9.964;2023-04-03T03:05:27;5.00;;;1.50;;
54909;SDS011;63189;51.240;9.964;2023-04-03T03:07:53;6.35;;;1.95;;
54909;SDS011;63189;51.240;9.964;2023-04-03T03:10:19;5.03;;;1.50;;
54909;SDS011;63189;51.240;9.964;2023-04-03T03:12:45;4.68;;;1.42;;
54909;SDS011;63189;51.240;9.964;2023-04-03T03:15:11;4.97;;;1.70;;
54909;SDS011;63189;51.240;9.964;2023-04-03T03:17:37;4.93;;;1.58;;
54909;SDS011;63189;51.240;9.964;2023-04-03T03:20:03;6.07;;;1.65;;
54909;SDS011;63189;51.240;9.964;2023-04-03T03:22:30;4.43;;;1.55;;
54909;SDS011;63189;51.240;9.964;2023-04-03T03:24:55;6.82;;;1.73;;
54909;SDS011;63189;51.240;9.964;2023-04-03T03:27:21;7.95;;;1.85;;
54909;SDS011;63189;51.240;9.964;2023-04-03T03:29:46;4.07;;;1.80;;
54909;SDS011;63189;51.240;9.964;2023-04-03T03:32:12;7.10;;;1.63;;
54909;SDS011;63189;51.240;9.964;2023-04-03T03:34:37;4.68;;;1.60;;
54909;SDS011;63189;51.240;9.964;2023-04-03T03:37:02;5.10;;;1.40;;
54909;SDS011;63189;51.240;9.964;2023-04-03T03:39:28;5.03;;;1.45;;
54909;SDS011;63189;51.240;9.964;2023-04-03T03:41:53;4.13;;;1.50;;
54909;SDS011;63189;51.240;9.964;2023-04-03T03:44:19;4.65;;;1.50;;
54909;SDS011;63189;51.240;9.964;2023-04-03T03:46:45;4.82;;;1.50;;
54909;SDS011;63189;51.240;9.964;2023-04-03T03:49:10;2.40;;;1.40;;
54909;SDS011;63189;51.240;9.964;2023-04-03T03:51:36;6.40;;;1.65;;
54909;SDS011;63189;51.240;9.964;2023-04-03T03:54:02;3.70;;;1.52;;
54909;SDS011;63189;51.240;9.964;2023-04-03T03:56:28;6.80;;;2.22;;
54909;SDS011;63189;51.240;9.964;2023-04-03T03:58:53;8.80;;;1.80;;
54909;SDS011;63189;51.240;9.964;2023-04-03T04:01:18;6.85;;;1.63;;
54909;SDS011;63189;51.240;9.964;2023-04-03T04:03:44;4.85;;;1.77;;
54909;SDS011;63189;51.240;9.964;2023-04-03T04:06:10;6.00;;;1.50;;
54909;SDS011;63189;51.240;9.964;2023-04-03T04:08:35;6.03;;;2.05;;
54909;SDS011;63189;51.240;9.964;2023-04-03T04:11:00;8.60;;;2.20;;
54909;SDS011;63189;51.240;9.964;2023-04-03T04:13:26;4.38;;;1.70;;
54909;SDS011;63189;51.240;9.964;2023-04-03T04:15:51;4.00;;;1.50;;
54909;SDS011;63189;51.240;9.964;2023-04-03T04:18:16;4.18;;;1.77;;
54909;SDS011;63189;51.240;9.964;2023-04-03T04:20:44;4.35;;;2.00;;
54909;SDS011;63189;51.240;9.964;2023-04-03T04:23:10;5.70;;;1.70;;
54909;SDS011;63189;51.240;9.964;2023-04-03T04:25:35;7.95;;;2.33;;
54909;SDS011;63189;51.240;9.964;2023-04-03T04:28:01;6.82;;;1.90;;
54909;SDS011;63189;51.240;9.964;2023-04-03T04:30:26;5.10;;;1.70;;
54909;SDS011;63189;51.240;9.964;2023-04-03T04:32:52;5.32;;;1.80;;
54909;SDS011;63189;51.240;9.964;2023-04-03T04:35:17;5.45;;;1.70;;
54909;SDS011;63189;51.240;9.964;2023-04-03T04:37:43;7.15;;;1.90;;
54909;SDS011;63189;51.240;9.964;2023-04-03T04:40:08;3.97;;;1.70;;
54909;SDS011;63189;51.240;9.964;2023-04-03T04:42:34;5.60;;;2.00;;
54909;SDS011;63189;51.240;9.964;2023-04-03T04:44:59;5.07;;;1.80;;
54909;SDS011;63189;51.240;9.964;2023-04-03T04:47:25;6.70;;;1.75;;
54909;SDS011;63189;51.240;9.964;2023-04-03T04:49:50;6.60;;;2.05;;
54909;SDS011;63189;51.240;9.964;2023-04-03T04:52:16;4.28;;;1.60;;
54909;SDS011;63189;51.240;9.964;2023-04-03T04:54:41;4.95;;;2.05;;
54909;SDS011;63189;51.240;9.964;2023-04-03T04:57:06;5.10;;;1.63;;
54909;SDS011;63189;51.240;9.964;2023-04-03T04:59:31;3.85;;;1.75;;
54909;SDS011;63189;51.240;9.964;2023-04-03T05:01:57;7.05;;;2.17;;
54909;SDS011;63189;51.240;9.964;2023-04-03T05:04:22;5.40;;;2.10;;
54909;SDS011;63189;51.240;9.964;2023-04-03T05:06:48;4.45;;;1.60;;
54909;SDS011;63189;51.240;9.964;2023-04-03T05:09:13;8.38;;;2.28;;
54909;SDS011;63189;51.240;9.964;2023-04-03T05:11:38;5.68;;;2.00;;
54909;SDS011;63189;51.240;9.964;2023-04-03T05:14:04;4.88;;;2.10;;
54909;SDS011;63189;51.240;9.964;2023-04-03T05:16:31;6.82;;;2.20;;
54909;SDS011;63189;51.240;9.964;2023-04-03T05:18:57;10.10;;;2.40;;
54909;SDS011;63189;51.240;9.964;2023-04-03T05:21:22;5.57;;;1.80;;
54909;SDS011;63189;51.240;9.964;2023-04-03T05:23:49;5.00;;;2.08;;
54909;SDS011;63189;51.240;9.964;2023-04-03T05:26:15;6.10;;;2.30;;
54909;SDS011;63189;51.240;9.964;2023-04-03T05:28:40;4.65;;;1.95;;
54909;SDS011;63189;51.240;9.964;2023-04-03T05:31:05;9.90;;;2.55;;
54909;SDS011;63189;51.240;9.964;2023-04-03T05:33:31;4.50;;;2.33;;
54909;SDS011;63189;51.240;9.964;2023-04-03T05:35:56;5.03;;;2.15;;
54909;SDS011;63189;51.240;9.964;2023-04-03T05:38:26;6.45;;;2.30;;
54909;SDS011;63189;51.240;9.964;2023-04-03T05:40:51;3.35;;;1.77;;
54909;SDS011;63189;51.240;9.964;2023-04-03T05:43:17;4.53;;;2.15;;
54909;SDS011;63189;51.240;9.964;2023-04-03T05:45:42;5.93;;;2.58;;
54909;SDS011;63189;51.240;9.964;2023-04-03T05:48:08;5.00;;;2.35;;
54909;SDS011;63189;51.240;9.964;2023-04-03T05:50:33;6.13;;;2.42;;
54909;SDS011;63189;51.240;9.964;2023-04-03T05:52:59;5.95;;;2.40;;
54909;SDS011;63189;51.240;9.964;2023-04-03T05:55:27;5.43;;;2.60;;
54909;SDS011;63189;51.240;9.964;2023-04-03T05:57:52;5.65;;;2.40;;
54909;SDS011;63189;51.240;9.964;2023-04-03T06:00:17;5.82;;;2.20;;
54909;SDS011;63189;51.240;9.964;2023-04-03T06:02:43;6.43;;;2.47;;
54909;SDS011;63189;51.240;9.964;2023-04-03T06:05:09;5.47;;;2.13;;
54909;SDS011;63189;51.240;9.964;2023-04-03T06:07:36;7.38;;;2.40;;
54909;SDS011;63189;51.240;9.964;2023-04-03T06:10:02;5.65;;;2.30;;
54909;SDS011;63189;51.240;9.964;2023-04-03T06:12:28;6.47;;;2.70;;
54909;SDS011;63189;51.240;9.964;2023-04-03T06:14:56;4.70;;;2.47;;
54909;SDS011;63189;51.240;9.964;2023-04-03T06:17:22;7.68;;;2.90;;
54909;SDS011;63189;51.240;9.964;2023-04-03T06:19:47;6.03;;;2.70;;
54909;SDS011;63189;51.240;9.964;2023-04-03T06:22:13;4.82;;;2.53;;
54909;SDS011;63189;51.240;9.964;2023-04-03T06:24:38;6.13;;;2.53;;
54909;SDS011;63189;51.240;9.964;2023-04-03T06:27:04;6.78;;;2.92;;
54909;SDS011;63189;51.240;9.964;2023-04-03T06:29:29;6.90;;;2.90;;
54909;SDS011;63189;51.240;9.964;2023-04-03T06:31:55;6.78;;;3.00;;
54909;SDS011;63189;51.240;9.964;2023-04-03T06:34:21;5.00;;;2.30;;
54909;SDS011;63189;51.240;9.964;2023-04-03T06:36:47;9.60;;;3.22;;
54909;SDS011;63189;51.240;9.964;2023-04-03T06:39:14;7.40;;;2.90;;
54909;SDS011;63189;51.240;9.964;2023-04-03T06:41:41;6.18;;;3.00;;
54909;SDS011;63189;51.240;9.964;2023-04-03T06:44:07;8.50;;;2.65;;
54909;SDS011;63189;51.240;9.964;2023-04-03T06:46:36;6.22;;;2.40;;
54909;SDS011;63189;51.240;9.964;2023-04-03T06:49:02;4.68;;;2.42;;
54909;SDS011;63189;51.240;9.964;2023-04-03T06:51:29;4.90;;;2.50;;
54909;SDS011;63189;51.240;9.964;2023-04-03T06:53:55;5.80;;;2.25;;
54909;SDS011;63189;51.240;9.964;2023-04-03T06:56:22;8.90;;;3.08;;
54909;SDS011;63189;51.240;9.964;2023-04-03T06:58:48;8.00;;;2.03;;
54909;SDS011;63189;51.240;9.964;2023-04-03T07:01:17;5.82;;;2.38;;
54909;SDS011;63189;51.240;9.964;2023-04-03T07:03:44;4.53;;;2.40;;
54909;SDS011;63189;51.240;9.964;2023-04-03T07:06:10;9.45;;;2.50;;
54909;SDS011;63189;51.240;9.964;2023-04-03T07:08:36;4.03;;;2.33;;
54909;SDS011;63189;51.240;9.964;2023-04-03T07:11:03;3.85;;;2.10;;
54909;SDS011;63189;51.240;9.964;2023-04-03T07:13:29;4.65;;;2.00;;
54909;SDS011;63189;51.240;9.964;2023-04-03T07:15:54;9.52;;;1.90;;
54909;SDS011;63189;51.240;9.964;2023-04-03T07:18:20;5.38;;;2.10;;
54909;SDS011;63189;51.240;9.964;2023-04-03T07:20:46;6.57;;;1.92;;
54909;SDS011;63189;51.240;9.964;2023-04-03T07:23:11;4.80;;;2.22;;
54909;SDS011;63189;51.240;9.964;2023-04-03T07:25:41;5.45;;;1.88;;
54909;SDS011;63189;51.240;9.964;2023-04-03T07:28:10;5.80;;;1.90;;
54909;SDS011;63189;51.240;9.964;2023-04-03T07:30:47;4.10;;;1.63;;
54909;SDS011;63189;51.240;9.964;2023-04-03T07:33:15;4.60;;;2.00;;
54909;SDS011;63189;51.240;9.964;2023-04-03T07:35:43;5.38;;;2.22;;
54909;SDS011;63189;51.240;9.964;2023-04-03T07:38:09;4.82;;;1.80;;
54909;SDS011;63189;51.240;9.964;2023-04-03T07:40:35;4.25;;;1.83;;
54909;SDS011;63189;51.240;9.964;2023-04-03T07:43:01;4.57;;;1.60;;
54909;SDS011;63189;51.240;9.964;2023-04-03T07:45:27;3.17;;;1.23;;
54909;SDS011;63189;51.240;9.964;2023-04-03T07:47:52;4.70;;;1.70;;
54909;SDS011;63189;51.240;9.964;2023-04-03T07:50:18;8.40;;;1.77;;
54909;SDS011;63189;51.240;9.964;2023-04-03T07:52:44;10.07;;;1.08;;
54909;SDS011;63189;51.240;9.964;2023-04-03T07:55:10;2.33;;;1.00;;
54909;SDS011;63189;51.240;9.964;2023-04-03T07:57:36;1.70;;;0.80;;
54909;SDS011;63189;51.240;9.964;2023-04-03T08:00:02;1.98;;;0.80;;
54909;SDS011;63189;51.240;9.964;2023-04-03T08:02:29;1.20;;;0.52;;
54909;SDS011;63189;51.240;9.964;2023-04-03T08:04:56;1.52;;;0.55;;
54909;SDS011;63189;51.240;9.964;2023-04-03T08:07:22;2.58;;;0.55;;
54909;SDS011;63189;51.240;9.964;2023-04-03T08:09:47;3.10;;;0.60;;
54909;SDS011;63189;51.240;9.964;2023-04-03T08:12:12;3.28;;;0.95;;
54909;SDS011;63189;51.240;9.964;2023-04-03T08:14:39;2.60;;;0.68;;
54909;SDS011;63189;51.240;9.964;2023-04-03T08:17:05;1.40;;;0.70;;
54909;SDS011;63189;51.240;9.964;2023-04-03T08:19:30;2.67;;;1.02;;
54909;SDS011;63189;51.240;9.964;2023-04-03T08:21:56;5.43;;;1.23;;
54909;SDS011;63189;51.240;9.964;2023-04-03T08:24:23;4.50;;;1.00;;
54909;SDS011;63189;51.240;9.964;2023-04-03T08:26:49;2.58;;;0.75;;
54909;SDS011;63189;51.240;9.964;2023-04-03T08:29:15;2.70;;;0.80;;
54909;SDS011;63189;51.240;9.964;2023-04-03T08:31:40;3.00;;;1.08;;
54909;SDS011;63189;51.240;9.964;2023-04-03T08:34:05;3.90;;;1.05;;
54909;SDS011;63189;51.240;9.964;2023-04-03T08:36:31;3.35;;;0.90;;
54909;SDS011;63189;51.240;9.964;2023-04-03T08:38:57;5.28;;;0.95;;
54909;SDS011;63189;51.240;9.964;2023-04-03T08:41:29;3.92;;;0.90;;
54909;SDS011;63189;51.240;9.964;2023-04-03T08:49:39;3.10;;;1.08;;
54909;SDS011;63189;51.240;9.964;2023-04-03T08:52:12;4.68;;;1.13;;
54909;SDS011;63189;51.240;9.964;2023-04-03T08:54:51;5.18;;;1.42;;
54909;SDS011;63189;51.240;9.964;2023-04-03T08:57:38;4.15;;;0.90;;
54909;SDS011;63189;51.240;9.964;2023-04-03T09:00:25;3.17;;;0.88;;
54909;SDS011;63189;51.240;9.964;2023-04-03T09:02:54;4.03;;;1.67;;
54909;SDS011;63189;51.240;9.964;2023-04-03T09:08:14;3.20;;;0.88;;
54909;SDS011;63189;51.240;9.964;2023-04-03T09:10:47;2.92;;;0.88;;
54909;SDS011;63189;51.240;9.964;2023-04-03T09:15:57;4.53;;;1.23;;
54909;SDS011;63189;51.240;9.964;2023-04-03T09:18:25;5.68;;;1.27;;
54909;SDS011;63189;51.240;9.964;2023-04-03T09:21:08;4.05;;;1.60;;
54909;SDS011;63189;51.240;9.964;2023-04-03T09:23:49;3.35;;;1.60;;
54909;SDS011;63189;51.240;9.964;2023-04-03T09:26:17;3.38;;;1.20;;
54909;SDS011;63189;51.240;9.964;2023-04-03T09:28:48;2.35;;;0.68;;
54909;SDS011;63189;51.240;9.964;2023-04-03T09:31:19;3.00;;;1.52;;
54909;SDS011;63189;51.240;9.964;2023-04-03T09:33:55;4.68;;;0.88;;
54909;SDS011;63189;51.240;9.964;2023-04-03T09:36:38;2.15;;;0.98;;
54909;SDS011;63189;51.240;9.964;2023-04-03T09:39:04;3.33;;;0.68;;
54909;SDS011;63189;51.240;9.964;2023-04-03T09:41:34;3.30;;;0.82;;
54909;SDS011;63189;51.240;9.964;2023-04-03T09:44:00;1.67;;;0.80;;
54909;SDS011;63189;51.240;9.964;2023-04-03T09:49:00;1.30;;;0.60;;
54909;SDS011;63189;51.240;9.964;2023-04-03T09:51:28;1.40;;;0.60;;
54909;SDS011;63189;51.240;9.964;2023-04-03T09:53:54;2.55;;;0.90;;
54909;SDS011;63189;51.240;9.964;2023-04-03T09:56:30;4.05;;;1.00;;
54909;SDS011;63189;51.240;9.964;2023-04-03T10:01:26;4.70;;;0.75;;
54909;SDS011;63189;51.240;9.964;2023-04-03T10:06:47;2.28;;;0.82;;
54909;SDS011;63189;51.240;9.964;2023-04-03T10:09:33;2.03;;;0.80;;
54909;SDS011;63189;51.240;9.964;2023-04-03T10:12:08;3.58;;;0.88;;
54909;SDS011;63189;51.240;9.964;2023-04-03T10:25:19;2.03;;;0.80;;
54909;SDS011;63189;51.240;9.964;2023-04-03T10:28:00;3.42;;;1.17;;
54909;SDS011;63189;51.240;9.964;2023-04-03T10:35:44;3.15;;;0.82;;
54909;SDS011;63189;51.240;9.964;2023-04-03T10:38:30;2.20;;;0.70;;
54909;SDS011;63189;51.240;9.964;2023-04-03T10:41:16;2.67;;;0.90;;
54909;SDS011;63189;51.240;9.964;2023-04-03T10:46:36;2.72;;;0.80;;
54909;SDS011;63189;51.240;9.964;2023-04-03T10:49:10;2.03;;;0.73;;
54909;SDS011;63189;51.240;9.964;2023-04-03T10:51:48;2.28;;;0.70;;
54909;SDS011;63189;51.240;9.964;2023-04-03T10:54:25;1.73;;;0.93;;
54909;SDS011;63189;51.240;9.964;2023-04-03T10:59:25;2.20;;;0.80;;
54909;SDS011;63189;51.240;9.964;2023-04-03T11:01:59;3.20;;;1.13;;
54909;SDS011;63189;51.240;9.964;2023-04-03T11:04:29;5.90;;;1.45;;
54909;SDS011;63189;51.240;9.964;2023-04-03T11:07:04;9.07;;;1.08;;
54909;SDS011;63189;51.240;9.964;2023-04-03T11:09:35;1.95;;;0.80;;
54909;SDS011;63189;51.240;9.964;2023-04-03T11:12:08;2.83;;;0.90;;
54909;SDS011;63189;51.240;9.964;2023-04-03T11:14:37;2.47;;;0.88;;
54909;SDS011;63189;51.240;9.964;2023-04-03T11:17:11;5.28;;;0.90;;
54909;SDS011;63189;51.240;9.964;2023-04-03T11:22:27;2.40;;;0.95;;
54909;SDS011;63189;51.240;9.964;2023-04-03T11:25:20;2.55;;;0.77;;
54909;SDS011;63189;51.240;9.964;2023-04-03T11:27:59;1.83;;;0.85;;
54909;SDS011;63189;51.240;9.964;2023-04-03T11:30:28;3.95;;;0.80;;
54909;SDS011;63189;51.240;9.964;2023-04-03T11:35:45;2.38;;;0.63;;
54909;SDS011;63189;51.240;9.964;2023-04-03T11:38:22;3.33;;;1.00;;
54909;SDS011;63189;51.240;9.964;2023-04-03T11:40:51;4.15;;;1.02;;
54909;SDS011;63189;51.240;9.964;2023-04-03T11:43:26;3.05;;;1.15;;
54909;SDS011;63189;51.240;9.964;2023-04-03T11:45:56;2.65;;;0.85;;
54909;SDS011;63189;51.240;9.964;2023-04-03T11:50:53;3.53;;;1.17;;
54909;SDS011;63189;51.240;9.964;2023-04-03T11:53:28;2.72;;;0.63;;
54909;SDS011;63189;51.240;9.964;2023-04-03T12:00:55;4.13;;;1.23;;
54909;SDS011;63189;51.240;9.964;2023-04-03T12:13:38;6.03;;;1.00;;
54909;SDS011;63189;51.240;9.964;2023-04-03T12:16:30;4.47;;;1.13;;
54909;SDS011;63189;51.240;9.964;2023-04-03T12:18:57;4.43;;;1.40;;
54909;SDS011;63189;51.240;9.964;2023-04-03T12:22:11;3.60;;;1.23;;
54909;SDS011;63189;51.240;9.964;2023-04-03T12:43:14;4.68;;;1.25;;
54909;SDS011;63189;51.240;9.964;2023-04-03T12:45:40;1.77;;;0.95;;
54909;SDS011;63189;51.240;9.964;2023-04-03T12:48:13;3.20;;;1.00;;
54909;SDS011;63189;51.240;9.964;2023-04-03T12:50:41;3.85;;;1.00;;
54909;SDS011;63189;51.240;9.964;2023-04-03T12:53:12;3.65;;;0.90;;
54909;SDS011;63189;51.240;9.964;2023-04-03T12:55:44;2.35;;;1.00;;
54909;SDS011;63189;51.240;9.964;2023-04-03T12:58:16;2.35;;;1.00;;
54909;SDS011;63189;51.240;9.964;2023-04-03T13:00:58;7.13;;;1.80;;
54909;SDS011;63189;51.240;9.964;2023-04-03T13:03:26;2.58;;;1.00;;
54909;SDS011;63189;51.240;9.964;2023-04-03T13:05:53;1.98;;;0.80;;
54909;SDS011;63189;51.240;9.964;2023-04-03T13:08:22;4.40;;;0.88;;
54909;SDS011;63189;51.240;9.964;2023-04-03T13:10:50;2.10;;;0.90;;
54909;SDS011;63189;51.240;9.964;2023-04-03T13:13:21;1.45;;;0.80;;
54909;SDS011;63189;51.240;9.964;2023-04-03T13:15:48;2.42;;;0.85;;
54909;SDS011;63189;51.240;9.964;2023-04-03T13:18:22;3.55;;;1.05;;
54909;SDS011;63189;51.240;9.964;2023-04-03T13:21:06;2.88;;;0.98;;
54909;SDS011;63189;51.240;9.964;2023-04-03T13:23:38;5.50;;;1.00;;
54909;SDS011;63189;51.240;9.964;2023-04-03T13:26:07;5.28;;;1.30;;
54909;SDS011;63189;51.240;9.964;2023-04-03T13:28:33;2.35;;;1.10;;
54909;SDS011;63189;51.240;9.964;2023-04-03T13:33:35;4.65;;;1.20;;
54909;SDS011;63189;51.240;9.964;2023-04-03T13:36:06;7.40;;;1.20;;
54909;SDS011;63189;51.240;9.964;2023-04-03T13:38:41;9.70;;;3.58;;
54909;SDS011;63189;51.240;9.964;2023-04-03T13:41:24;10.32;;;3.50;;
54909;SDS011;63189;51.240;9.964;2023-04-03T13:43:50;6.13;;;2.22;;
54909;SDS011;63189;51.240;9.964;2023-04-03T13:48:43;3.40;;;1.50;;
54909;SDS011;63189;51.240;9.964;2023-04-03T14:01:32;4.95;;;1.40;;
54909;SDS011;63189;51.240;9.964;2023-04-03T14:04:10;4.72;;;0.98;;
54909;SDS011;63189;51.240;9.964;2023-04-03T14:06:38;3.03;;;0.85;;
54909;SDS011;63189;51.240;9.964;2023-04-03T14:09:04;3.10;;;1.40;;
54909;SDS011;63189;51.240;9.964;2023-04-03T14:11:30;4.05;;;1.00;;
54909;SDS011;63189;51.240;9.964;2023-04-03T14:14:00;2.80;;;0.95;;
54909;SDS011;63189;51.240;9.964;2023-04-03T14:16:31;2.90;;;1.00;;
54909;SDS011;63189;51.240;9.964;2023-04-03T14:18:57;4.30;;;1.40;;
54909;SDS011;63189;51.240;9.964;2023-04-03T14:21:23;3.25;;;1.10;;
54909;SDS011;63189;51.240;9.964;2023-04-03T14:23:49;4.78;;;1.25;;
54909;SDS011;63189;51.240;9.964;2023-04-03T14:26:17;4.45;;;1.50;;
54909;SDS011;63189;51.240;9.964;2023-04-03T14:28:45;4.80;;;1.13;;
54909;SDS011;63189;51.240;9.964;2023-04-03T14:31:14;5.45;;;1.20;;
54909;SDS011;63189;51.240;9.964;2023-04-03T14:33:41;6.43;;;2.35;;
54909;SDS011;63189;51.240;9.964;2023-04-03T14:36:13;3.83;;;1.30;;
54909;SDS011;63189;51.240;9.964;2023-04-03T14:38:40;2.88;;;1.67;;
54909;SDS011;63189;51.240;9.964;2023-04-03T14:41:06;7.30;;;2.67;;
54909;SDS011;63189;51.240;9.964;2023-04-03T14:43:31;2.83;;;1.13;;
54909;SDS011;63189;51.240;9.964;2023-04-03T14:45:57;2.97;;;1.05;;
54909;SDS011;63189;51.240;9.964;2023-04-03T14:48:23;4.18;;;1.13;;
54909;SDS011;63189;51.240;9.964;2023-04-03T14:50:51;4.30;;;1.25;;
54909;SDS011;63189;51.240;9.964;2023-04-03T14:53:18;4.45;;;1.27;;
54909;SDS011;63189;51.240;9.964;2023-04-03T14:55:47;1.65;;;0.80;;
54909;SDS011;63189;51.240;9.964;2023-04-03T14:58:14;1.98;;;0.73;;
54909;SDS011;63189;51.240;9.964;2023-04-03T15:00:41;3.00;;;1.30;;
54909;SDS011;63189;51.240;9.964;2023-04-03T15:03:11;2.10;;;0.90;;
54909;SDS011;63189;51.240;9.964;2023-04-03T15:05:47;3.13;;;1.00;;
54909;SDS011;63189;51.240;9.964;2023-04-03T15:08:21;2.67;;;0.93;;
54909;SDS011;63189;51.240;9.964;2023-04-03T15:10:49;3.90;;;0.90;;
54909;SDS011;63189;51.240;9.964;2023-04-03T15:13:17;2.72;;;1.13;;
54909;SDS011;63189;51.240;9.964;2023-04-03T15:15:43;3.22;;;0.98;;
54909;SDS011;63189;51.240;9.964;2023-04-03T15:18:17;3.13;;;1.00;;
54909;SDS011;63189;51.240;9.964;2023-04-03T15:20:51;2.78;;;0.98;;
54909;SDS011;63189;51.240;9.964;2023-04-03T15:23:18;4.28;;;1.30;;
54909;SDS011;63189;51.240;9.964;2023-04-03T15:25:45;4.43;;;1.05;;
54909;SDS011;63189;51.240;9.964;2023-04-03T15:28:54;2.42;;;0.75;;
54909;SDS011;63189;51.240;9.964;2023-04-03T15:31:03;2.50;;;0.90;;
54909;SDS011;63189;51.240;9.964;2023-04-03T15:33:29;1.52;;;0.95;;
54909;SDS011;63189;51.240;9.964;2023-04-03T15:35:56;2.63;;;1.00;;
54909;SDS011;63189;51.240;9.964;2023-04-03T15:38:21;5.32;;;1.85;;
54909;SDS011;63189;51.240;9.964;2023-04-03T15:40:47;2.95;;;1.40;;
54909;SDS011;63189;51.240;9.964;2023-04-03T15:43:13;4.60;;;1.85;;
54909;SDS011;63189;51.240;9.964;2023-04-03T15:45:39;4.97;;;1.40;;
54909;SDS011;63189;51.240;9.964;2023-04-03T15:48:05;4.35;;;1.30;;
54909;SDS011;63189;51.240;9.964;2023-04-03T15:50:32;5.03;;;1.48;;
54909;SDS011;63189;51.240;9.964;2023-04-03T15:52:58;3.25;;;1.40;;
54909;SDS011;63189;51.240;9.964;2023-04-03T15:55:25;7.15;;;1.95;;
54909;SDS011;63189;51.240;9.964;2023-04-03T15:57:51;6.45;;;2.13;;
54909;SDS011;63189;51.240;9.964;2023-04-03T16:00:17;5.45;;;2.00;;
54909;SDS011;63189;51.240;9.964;2023-04-03T16:02:43;5.47;;;1.38;;
54909;SDS011;63189;51.240;9.964;2023-04-03T16:05:11;3.88;;;1.30;;
54909;SDS011;63189;51.240;9.964;2023-04-03T16:07:38;3.22;;;1.30;;
54909;SDS011;63189;51.240;9.964;2023-04-03T16:10:05;1.98;;;1.00;;
54909;SDS011;63189;51.240;9.964;2023-04-03T16:12:32;2.58;;;0.88;;
54909;SDS011;63189;51.240;9.964;2023-04-03T16:14:58;4.40;;;1.08;;
54909;SDS011;63189;51.240;9.964;2023-04-03T16:17:23;1.67;;;0.80;;
54909;SDS011;63189;51.240;9.964;2023-04-03T16:19:49;3.47;;;1.30;;
54909;SDS011;63189;51.240;9.964;2023-04-03T16:22:14;2.17;;;0.95;;
54909;SDS011;63189;51.240;9.964;2023-04-03T16:24:39;5.05;;;1.10;;
54909;SDS011;63189;51.240;9.964;2023-04-03T16:27:05;2.58;;;1.23;;
54909;SDS011;63189;51.240;9.964;2023-04-03T16:29:30;5.38;;;1.17;;
54909;SDS011;63189;51.240;9.964;2023-04-03T16:31:56;2.95;;;1.20;;
54909;SDS011;63189;51.240;9.964;2023-04-03T16:34:23;2.55;;;0.80;;
54909;SDS011;63189;51.240;9.964;2023-04-03T16:36:50;4.72;;;1.50;;
54909;SDS011;63189;51.240;9.964;2023-04-03T16:39:17;3.30;;;1.23;;